createdAt,value
2018-09-26T00:00:17.095Z,102939.33
2018-09-26T00:01:05.638Z,102938.02
2018-09-26T00:01:22.681Z,102938.39
2018-09-26T00:01:40.639Z,102935.78
2018-09-26T00:01:57.702Z,102936.13
2018-09-26T00:02:13.068Z,102931.87
2018-09-26T00:02:31.717Z,102935.05
2018-09-26T00:02:48.917Z,102938.73
2018-09-26T00:03:11.143Z,102938.39
2018-09-26T00:03:41.925Z,102932.21
2018-09-26T00:03:56.386Z,102938.73
2018-09-26T00:04:10.408Z,102938.02
2018-09-26T00:04:26.435Z,102935.42
2018-09-26T00:04:44.611Z,102933.19
2018-09-26T00:04:56.368Z,102939.70
2018-09-26T00:05:08.130Z,102932.45
2018-09-26T00:05:19.893Z,102936.36
2018-09-26T00:05:31.631Z,102925.70
2018-09-26T00:05:43.415Z,102932.81
2018-09-26T00:05:55.167Z,102933.19
2018-09-26T00:06:06.963Z,102927.97
2018-09-26T00:06:18.711Z,102927.97
2018-09-26T00:06:30.470Z,102925.36
2018-09-26T00:06:42.219Z,102925.70
2018-09-26T00:06:53.961Z,102930.20
2018-09-26T00:07:05.712Z,102920.15
2018-09-26T00:07:17.465Z,102928.91
2018-09-26T00:07:29.205Z,102926.30
2018-09-26T00:07:40.949Z,102924.06
2018-09-26T00:07:52.881Z,102923.09
2018-09-26T00:08:04.639Z,102927.36
2018-09-26T00:08:16.808Z,102923.69
2018-09-26T00:08:28.557Z,102924.99
2018-09-26T00:08:40.306Z,102920.15
2018-09-26T00:08:52.057Z,102921.78
2018-09-26T00:09:03.905Z,102924.77
2018-09-26T00:09:15.670Z,102920.48
2018-09-26T00:09:27.771Z,102921.22
2018-09-26T00:09:39.536Z,102924.77
2018-09-26T00:09:51.275Z,102924.39
2018-09-26T00:10:03.037Z,102926.43
2018-09-26T00:10:14.798Z,102922.16
2018-09-26T00:10:26.550Z,102923.45
2018-09-26T00:10:38.290Z,102923.45
2018-09-26T00:10:50.060Z,102922.39
2018-09-26T00:11:01.828Z,102923.09
2018-09-26T00:11:13.611Z,102929.27
2018-09-26T00:11:25.360Z,102926.67
2018-09-26T00:11:37.210Z,102920.48
2018-09-26T00:11:48.957Z,102921.78
2018-09-26T00:12:00.719Z,102917.87
2018-09-26T00:12:12.457Z,102922.76
2018-09-26T00:12:24.195Z,102918.48
2018-09-26T00:12:35.945Z,102920.15
2018-09-26T00:12:47.700Z,102918.84
2018-09-26T00:12:59.455Z,102919.78
2018-09-26T00:13:11.214Z,102920.15
2018-09-26T00:13:22.965Z,102923.09
2018-09-26T00:13:34.725Z,102916.24
2018-09-26T00:13:46.494Z,102914.94
2018-09-26T00:13:58.245Z,102923.69
2018-09-26T00:14:10.080Z,102924.63
2018-09-26T00:14:21.818Z,102917.55
2018-09-26T00:14:33.561Z,102919.18
2018-09-26T00:14:45.322Z,102918.84
2018-09-26T00:14:57.109Z,102921.45
2018-09-26T00:15:08.880Z,102922.39
2018-09-26T00:15:20.632Z,102924.06
2018-09-26T00:15:32.370Z,102921.08
2018-09-26T00:15:44.138Z,102919.18
2018-09-26T00:15:55.893Z,102919.78
2018-09-26T00:16:07.648Z,102921.08
2018-09-26T00:16:19.439Z,102922.95
2018-09-26T00:16:31.189Z,102918.48
2018-09-26T00:16:42.947Z,102919.41
2018-09-26T00:16:54.715Z,102916.58
2018-09-26T00:17:06.488Z,102925.93
2018-09-26T00:17:18.243Z,102924.99
2018-09-26T00:17:30.027Z,102921.45
2018-09-26T00:17:41.775Z,102923.69
2018-09-26T00:17:53.526Z,102926.30
2018-09-26T00:18:05.283Z,102920.15
2018-09-26T00:18:17.040Z,102919.78
2018-09-26T00:18:28.787Z,102920.48
2018-09-26T00:18:40.725Z,102922.76
2018-09-26T00:18:52.492Z,102916.24
2018-09-26T00:19:04.319Z,102919.18
2018-09-26T00:19:16.061Z,102919.78
2018-09-26T00:19:27.814Z,102923.69
2018-09-26T00:19:39.572Z,102913.63
2018-09-26T00:19:51.324Z,102913.63
2018-09-26T00:20:03.083Z,102913.27
2018-09-26T00:20:14.815Z,102916.24
2018-09-26T00:20:26.600Z,102913.27
2018-09-26T00:20:38.343Z,102908.42
2018-09-26T00:20:50.099Z,102913.63
2018-09-26T00:21:01.859Z,102915.88
2018-09-26T00:21:13.598Z,102913.63
2018-09-26T00:21:25.388Z,102907.45
2018-09-26T00:21:37.159Z,102912.33
2018-09-26T00:21:48.899Z,102911.36
2018-09-26T00:22:01.228Z,102913.97
2018-09-26T00:22:12.987Z,102915.88
2018-09-26T00:22:24.736Z,102910.42
2018-09-26T00:22:36.562Z,102911.36
2018-09-26T00:22:48.309Z,102910.42
2018-09-26T00:23:00.050Z,102910.06
2018-09-26T00:23:11.799Z,102911.03
2018-09-26T00:23:23.543Z,102906.15
2018-09-26T00:23:35.308Z,102904.84
2018-09-26T00:23:47.047Z,102909.49
2018-09-26T00:23:58.795Z,102911.97
2018-09-26T00:24:10.540Z,102903.55
2018-09-26T00:24:22.300Z,102905.58
2018-09-26T00:24:34.755Z,102907.12
2018-09-26T00:24:46.502Z,102906.75
2018-09-26T00:24:58.252Z,102900.94
2018-09-26T00:25:10.002Z,102902.24
2018-09-26T00:25:21.767Z,102901.30
2018-09-26T00:25:33.532Z,102904.84
2018-09-26T00:25:45.292Z,102905.81
2018-09-26T00:25:57.044Z,102902.24
2018-09-26T00:26:08.796Z,102907.82
2018-09-26T00:26:20.537Z,102900.00
2018-09-26T00:26:32.314Z,102904.52
2018-09-26T00:26:44.050Z,102902.24
2018-09-26T00:26:55.785Z,102902.24
2018-09-26T00:27:07.535Z,102907.45
2018-09-26T00:27:19.290Z,102904.52
2018-09-26T00:27:31.039Z,102901.67
2018-09-26T00:27:42.779Z,102900.94
2018-09-26T00:27:54.523Z,102904.84
2018-09-26T00:28:06.264Z,102900.38
2018-09-26T00:28:18.019Z,102893.12
2018-09-26T00:28:29.775Z,102898.33
2018-09-26T00:28:41.523Z,102897.03
2018-09-26T00:28:53.275Z,102900.23
2018-09-26T00:29:05.022Z,102898.33
2018-09-26T00:29:16.777Z,102892.19
2018-09-26T00:29:28.535Z,102893.48
2018-09-26T00:29:40.300Z,102898.33
2018-09-26T00:29:52.060Z,102897.03
2018-09-26T00:30:03.823Z,102893.86
2018-09-26T00:30:15.580Z,102892.19
2018-09-26T00:30:27.330Z,102889.95
2018-09-26T00:30:39.079Z,102896.46
2018-09-26T00:30:50.832Z,102893.86
2018-09-26T00:31:02.579Z,102895.39
2018-09-26T00:31:14.330Z,102896.09
2018-09-26T00:31:26.111Z,102897.39
2018-09-26T00:31:37.883Z,102893.86
2018-09-26T00:32:07.823Z,102901.67
2018-09-26T00:32:19.590Z,102893.48
2018-09-26T00:32:31.343Z,102894.42
2018-09-26T00:32:43.096Z,102893.48
2018-09-26T00:32:54.859Z,102891.25
2018-09-26T00:33:06.611Z,102892.55
2018-09-26T00:33:18.360Z,102889.20
2018-09-26T00:33:30.111Z,102894.79
2018-09-26T00:33:41.873Z,102892.55
2018-09-26T00:33:53.667Z,102892.19
2018-09-26T00:34:05.437Z,102889.20
2018-09-26T00:34:17.195Z,102892.41
2018-09-26T00:34:28.953Z,102891.81
2018-09-26T00:34:40.700Z,102890.52
2018-09-26T00:34:52.447Z,102889.20
2018-09-26T00:35:04.195Z,102889.20
2018-09-26T00:35:15.952Z,102890.52
2018-09-26T00:35:27.715Z,102890.18
2018-09-26T00:35:39.480Z,102891.81
2018-09-26T00:35:51.277Z,102888.64
2018-09-26T00:36:03.094Z,102887.91
2018-09-26T00:36:14.843Z,102884.00
2018-09-26T00:36:26.567Z,102897.03
2018-09-26T00:36:38.351Z,102890.18
2018-09-26T00:36:50.104Z,102888.88
2018-09-26T00:37:01.865Z,102890.52
2018-09-26T00:37:13.630Z,102888.51
2018-09-26T00:37:25.385Z,102884.36
2018-09-26T00:37:37.130Z,102890.87
2018-09-26T00:37:48.880Z,102888.28
2018-09-26T00:38:00.636Z,102885.30
2018-09-26T00:38:12.451Z,102886.60
2018-09-26T00:38:24.193Z,102893.72
2018-09-26T00:38:36.378Z,102886.84
2018-09-26T00:38:48.122Z,102888.88
2018-09-26T00:38:59.872Z,102884.00
2018-09-26T00:39:11.625Z,102886.60
2018-09-26T00:39:23.372Z,102882.69
2018-09-26T00:39:35.119Z,102888.14
2018-09-26T00:39:46.854Z,102889.44
2018-09-26T00:39:58.608Z,102891.48
2018-09-26T00:40:10.345Z,102886.27
2018-09-26T00:40:22.101Z,102888.51
2018-09-26T00:40:33.846Z,102883.66
2018-09-26T00:40:45.598Z,102889.20
2018-09-26T00:40:57.360Z,102886.60
2018-09-26T00:41:09.105Z,102879.16
2018-09-26T00:41:20.857Z,102886.97
2018-09-26T00:41:32.601Z,102883.43
2018-09-26T00:41:44.379Z,102885.30
2018-09-26T00:41:56.126Z,102883.06
2018-09-26T00:42:08.012Z,102886.60
2018-09-26T00:42:19.780Z,102886.60
2018-09-26T00:42:31.528Z,102884.00
2018-09-26T00:42:43.269Z,102882.69
2018-09-26T00:42:55.238Z,102888.88
2018-09-26T00:43:06.974Z,102881.39
2018-09-26T00:43:18.763Z,102878.78
2018-09-26T00:43:30.516Z,102882.69
2018-09-26T00:43:42.272Z,102885.91
2018-09-26T00:43:54.017Z,102890.18
2018-09-26T00:44:05.772Z,102895.39
2018-09-26T00:44:17.539Z,102878.78
2018-09-26T00:44:29.283Z,102879.75
2018-09-26T00:44:41.031Z,102879.39
2018-09-26T00:44:52.776Z,102879.75
2018-09-26T00:45:04.532Z,102877.72
2018-09-26T00:45:16.283Z,102876.17
2018-09-26T00:45:28.043Z,102875.24
2018-09-26T00:45:39.799Z,102876.55
2018-09-26T00:45:51.552Z,102876.17
2018-09-26T00:46:03.308Z,102873.58
2018-09-26T00:46:15.073Z,102879.75
2018-09-26T00:46:26.831Z,102876.17
2018-09-26T00:46:38.582Z,102873.01
2018-09-26T00:46:50.347Z,102874.88
2018-09-26T00:47:02.098Z,102879.75
2018-09-26T00:47:13.851Z,102877.48
2018-09-26T00:47:25.594Z,102870.40
2018-09-26T00:47:37.348Z,102877.48
2018-09-26T00:47:49.098Z,102876.91
2018-09-26T00:48:00.860Z,102875.24
2018-09-26T00:48:12.610Z,102877.48
2018-09-26T00:48:24.357Z,102874.31
2018-09-26T00:48:36.107Z,102871.70
2018-09-26T00:48:47.860Z,102879.52
2018-09-26T00:48:59.643Z,102876.91
2018-09-26T00:49:11.395Z,102873.94
2018-09-26T00:49:23.156Z,102879.16
2018-09-26T00:49:34.898Z,102875.24
2018-09-26T00:49:46.643Z,102872.27
2018-09-26T00:49:58.440Z,102872.64
2018-09-26T00:50:10.189Z,102872.27
2018-09-26T00:50:21.935Z,102875.48
2018-09-26T00:50:33.688Z,102873.94
2018-09-26T00:50:45.469Z,102872.27
2018-09-26T00:50:57.214Z,102876.78
2018-09-26T00:51:08.959Z,102872.64
2018-09-26T00:51:20.720Z,102873.58
2018-09-26T00:51:32.475Z,102868.36
2018-09-26T00:51:44.232Z,102869.33
2018-09-26T00:51:56.096Z,102871.94
2018-09-26T00:52:07.834Z,102868.36
2018-09-26T00:52:19.633Z,102870.63
2018-09-26T00:52:31.394Z,102869.66
2018-09-26T00:52:43.151Z,102867.42
2018-09-26T00:52:54.903Z,102866.72
2018-09-26T00:53:06.653Z,102870.27
2018-09-26T00:53:18.405Z,102867.66
2018-09-26T00:53:30.152Z,102865.75
2018-09-26T00:53:41.906Z,102864.12
2018-09-26T00:53:53.652Z,102870.63
2018-09-26T00:54:05.405Z,102865.05
2018-09-26T00:54:17.149Z,102863.89
2018-09-26T00:54:28.904Z,102863.15
2018-09-26T00:54:40.650Z,102868.96
2018-09-26T00:54:52.398Z,102860.20
2018-09-26T00:55:04.156Z,102861.84
2018-09-26T00:55:15.917Z,102865.42
2018-09-26T00:55:27.668Z,102864.12
2018-09-26T00:55:39.414Z,102863.75
2018-09-26T00:55:51.155Z,102868.96
2018-09-26T00:56:03.204Z,102862.08
2018-09-26T00:56:14.963Z,102859.84
2018-09-26T00:56:26.845Z,102868.59
2018-09-26T00:56:38.598Z,102866.72
2018-09-26T00:56:50.505Z,102864.69
2018-09-26T00:57:02.314Z,102862.81
2018-09-26T00:57:14.076Z,102863.38
2018-09-26T00:57:25.823Z,102862.81
2018-09-26T00:57:37.580Z,102862.45
2018-09-26T00:57:49.351Z,102860.55
2018-09-26T00:58:01.112Z,102856.63
2018-09-26T00:58:12.862Z,102861.84
2018-09-26T00:58:24.610Z,102859.61
2018-09-26T00:58:36.363Z,102861.52
2018-09-26T00:58:48.127Z,102859.98
2018-09-26T00:58:59.893Z,102849.78
2018-09-26T00:59:11.806Z,102858.30
2018-09-26T00:59:23.554Z,102857.61
2018-09-26T00:59:35.303Z,102857.94
2018-09-26T00:59:47.061Z,102857.94
2018-09-26T00:59:58.818Z,102855.33
2018-09-26T01:00:10.562Z,102850.48
2018-09-26T01:00:22.328Z,102849.55
2018-09-26T01:00:34.091Z,102846.95
2018-09-26T01:00:45.843Z,102849.92
2018-09-26T01:00:57.598Z,102857.37
2018-09-26T01:01:09.343Z,102858.67
2018-09-26T01:01:21.095Z,102849.55
2018-09-26T01:01:32.852Z,102843.97
2018-09-26T01:01:44.597Z,102852.16
2018-09-26T01:01:56.344Z,102851.79
2018-09-26T01:02:08.116Z,102858.67
2018-09-26T01:02:19.889Z,102849.55
2018-09-26T01:02:31.696Z,102853.46
2018-09-26T01:02:43.468Z,102845.64
2018-09-26T01:02:55.222Z,102847.51
2018-09-26T01:03:07.230Z,102851.22
2018-09-26T01:03:18.992Z,102847.51
2018-09-26T01:03:30.758Z,102846.95
2018-09-26T01:03:42.511Z,102846.95
2018-09-26T01:03:54.295Z,102847.69
2018-09-26T01:04:06.055Z,102843.04
2018-09-26T01:04:17.810Z,102845.08
2018-09-26T01:04:29.563Z,102845.64
2018-09-26T01:04:41.312Z,102856.30
2018-09-26T01:04:53.051Z,102856.06
2018-09-26T01:05:04.801Z,102847.51
2018-09-26T01:05:16.544Z,102842.30
2018-09-26T01:05:28.299Z,102846.20
2018-09-26T01:05:40.069Z,102848.81
2018-09-26T01:05:52.099Z,102843.04
2018-09-26T01:06:03.858Z,102846.58
2018-09-26T01:06:15.611Z,102850.86
2018-09-26T01:06:27.362Z,102848.25
2018-09-26T01:06:39.105Z,102844.70
2018-09-26T01:06:50.862Z,102847.31
2018-09-26T01:07:02.606Z,102845.64
2018-09-26T01:07:14.381Z,102841.37
2018-09-26T01:07:26.134Z,102846.58
2018-09-26T01:07:37.897Z,102839.13
2018-09-26T01:07:49.657Z,102843.60
2018-09-26T01:08:01.412Z,102842.10
2018-09-26T01:08:13.155Z,102843.41
2018-09-26T01:08:24.907Z,102839.50
2018-09-26T01:08:36.839Z,102840.43
2018-09-26T01:08:48.854Z,102834.66
2018-09-26T01:09:00.599Z,102845.64
2018-09-26T01:09:12.338Z,102841.73
2018-09-26T01:09:24.095Z,102841.73
2018-09-26T01:09:35.842Z,102838.19
2018-09-26T01:09:47.604Z,102837.45
2018-09-26T01:09:59.505Z,102835.22
2018-09-26T01:10:11.255Z,102839.50
2018-09-26T01:10:22.999Z,102836.16
2018-09-26T01:10:34.742Z,102840.43
2018-09-26T01:10:46.496Z,102846.58
2018-09-26T01:10:58.238Z,102840.06
2018-09-26T01:11:09.996Z,102839.69
2018-09-26T01:11:21.734Z,102837.45
2018-09-26T01:11:33.483Z,102842.10
2018-09-26T01:11:45.231Z,102844.91
2018-09-26T01:11:56.979Z,102846.20
2018-09-26T01:12:08.722Z,102841.00
2018-09-26T01:12:20.508Z,102839.69
2018-09-26T01:12:32.271Z,102844.91
2018-09-26T01:12:44.020Z,102844.20
2018-09-26T01:12:55.803Z,102840.06
2018-09-26T01:13:07.543Z,102848.81
2018-09-26T01:13:19.300Z,102843.97
2018-09-26T01:13:31.050Z,102840.43
2018-09-26T01:13:42.808Z,102844.57
2018-09-26T01:13:54.573Z,102847.88
2018-09-26T01:14:06.331Z,102839.69
2018-09-26T01:14:18.083Z,102847.88
2018-09-26T01:14:29.844Z,102838.76
2018-09-26T01:14:41.594Z,102848.11
2018-09-26T01:14:53.340Z,102842.67
2018-09-26T01:15:05.089Z,102840.06
2018-09-26T01:15:16.840Z,102848.25
2018-09-26T01:15:28.601Z,102849.19
2018-09-26T01:15:41.115Z,102842.47
2018-09-26T01:15:52.887Z,102843.60
2018-09-26T01:16:04.648Z,102846.02
2018-09-26T01:16:16.395Z,102846.20
2018-09-26T01:16:28.145Z,102845.64
2018-09-26T01:16:39.891Z,102841.37
2018-09-26T01:16:51.648Z,102842.67
2018-09-26T01:17:03.402Z,102847.18
2018-09-26T01:17:15.313Z,102846.95
2018-09-26T01:17:27.079Z,102842.10
2018-09-26T01:17:38.830Z,102843.41
2018-09-26T01:17:50.600Z,102838.19
2018-09-26T01:18:02.354Z,102840.43
2018-09-26T01:18:14.099Z,102845.64
2018-09-26T01:18:25.860Z,102844.34
2018-09-26T01:18:37.624Z,102842.67
2018-09-26T01:18:49.360Z,102843.04
2018-09-26T01:19:01.327Z,102846.20
2018-09-26T01:19:13.089Z,102842.30
2018-09-26T01:19:24.861Z,102840.06
2018-09-26T01:19:36.606Z,102843.97
2018-09-26T01:19:48.366Z,102840.43
2018-09-26T01:20:00.133Z,102843.60
2018-09-26T01:20:11.900Z,102840.06
2018-09-26T01:20:23.670Z,102841.97
2018-09-26T01:20:35.624Z,102837.09
2018-09-26T01:20:47.384Z,102841.97
2018-09-26T01:20:59.138Z,102841.00
2018-09-26T01:21:10.892Z,102843.27
2018-09-26T01:21:22.656Z,102847.51
2018-09-26T01:21:34.504Z,102844.91
2018-09-26T01:21:46.264Z,102847.51
2018-09-26T01:21:58.026Z,102839.69
2018-09-26T01:22:09.771Z,102848.48
2018-09-26T01:22:21.546Z,102846.58
2018-09-26T01:22:33.310Z,102843.60
2018-09-26T01:22:45.059Z,102846.95
2018-09-26T01:22:56.815Z,102843.04
2018-09-26T01:23:08.807Z,102843.60
2018-09-26T01:23:20.564Z,102849.55
2018-09-26T01:23:32.311Z,102842.67
2018-09-26T01:23:44.059Z,102840.80
2018-09-26T01:23:55.807Z,102844.70
2018-09-26T01:24:07.567Z,102845.64
2018-09-26T01:24:19.339Z,102839.13
2018-09-26T01:24:31.109Z,102841.00
2018-09-26T01:24:42.861Z,102847.51
2018-09-26T01:24:54.608Z,102843.97
2018-09-26T01:25:06.372Z,102842.30
2018-09-26T01:25:18.133Z,102844.91
2018-09-26T01:25:29.881Z,102846.44
2018-09-26T01:25:42.428Z,102838.05
2018-09-26T01:25:54.186Z,102844.57
2018-09-26T01:26:05.945Z,102845.88
2018-09-26T01:26:17.685Z,102848.48
2018-09-26T01:26:29.618Z,102848.81
2018-09-26T01:26:41.371Z,102844.57
2018-09-26T01:26:53.119Z,102836.75
2018-09-26T01:27:04.875Z,102843.27
2018-09-26T01:27:16.632Z,102835.78
2018-09-26T01:27:32.918Z,102840.30
2018-09-26T01:27:44.719Z,102838.99
2018-09-26T01:27:56.470Z,102837.31
2018-09-26T01:28:08.247Z,102842.30
2018-09-26T01:28:19.991Z,102835.78
2018-09-26T01:28:31.736Z,102840.06
2018-09-26T01:28:43.478Z,102848.48
2018-09-26T01:28:55.231Z,102848.81
2018-09-26T01:29:06.972Z,102835.45
2018-09-26T01:29:18.719Z,102838.05
2018-09-26T01:29:30.479Z,102838.99
2018-09-26T01:29:42.224Z,102834.48
2018-09-26T01:29:53.984Z,102839.92
2018-09-26T01:30:06.596Z,102837.09
2018-09-26T01:30:18.357Z,102834.15
2018-09-26T01:30:30.112Z,102838.99
2018-09-26T01:30:41.911Z,102839.36
2018-09-26T01:30:53.672Z,102835.78
2018-09-26T01:31:05.425Z,102840.66
2018-09-26T01:31:17.173Z,102836.75
2018-09-26T01:31:28.918Z,102829.27
2018-09-26T01:31:40.653Z,102836.16
2018-09-26T01:31:52.403Z,102832.84
2018-09-26T01:32:04.150Z,102830.23
2018-09-26T01:32:15.890Z,102836.39
2018-09-26T01:32:27.647Z,102832.84
2018-09-26T01:32:39.398Z,102834.15
2018-09-26T01:32:51.182Z,102835.78
2018-09-26T01:33:03.257Z,102836.39
2018-09-26T01:33:15.010Z,102833.17
2018-09-26T01:33:26.764Z,102829.27
2018-09-26T01:33:38.516Z,102829.64
2018-09-26T01:33:50.267Z,102825.36
2018-09-26T01:34:02.026Z,102833.78
2018-09-26T01:34:13.780Z,102830.94
2018-09-26T01:34:25.535Z,102832.24
2018-09-26T01:34:37.282Z,102832.48
2018-09-26T01:34:49.030Z,102832.61
2018-09-26T01:35:01.007Z,102833.78
2018-09-26T01:35:12.780Z,102828.94
2018-09-26T01:35:24.536Z,102831.88
2018-09-26T01:35:36.284Z,102833.91
2018-09-26T01:35:48.038Z,102830.94
2018-09-26T01:35:59.792Z,102833.17
2018-09-26T01:36:11.554Z,102831.88
2018-09-26T01:36:23.316Z,102827.77
2018-09-26T01:36:35.062Z,102824.42
2018-09-26T01:36:46.813Z,102825.73
2018-09-26T01:36:58.560Z,102829.27
2018-09-26T01:37:10.345Z,102830.37
2018-09-26T01:37:22.091Z,102827.41
2018-09-26T01:37:33.844Z,102829.27
2018-09-26T01:37:45.607Z,102827.41
2018-09-26T01:37:57.381Z,102823.48
2018-09-26T01:38:09.140Z,102825.73
2018-09-26T01:38:20.919Z,102823.48
2018-09-26T01:38:32.670Z,102828.70
2018-09-26T01:38:44.464Z,102826.47
2018-09-26T01:38:56.211Z,102828.34
2018-09-26T01:39:07.964Z,102827.97
2018-09-26T01:39:19.733Z,102817.91
2018-09-26T01:39:31.489Z,102822.19
2018-09-26T01:39:43.243Z,102821.82
2018-09-26T01:39:55.019Z,102821.82
2018-09-26T01:40:06.779Z,102819.21
2018-09-26T01:40:18.535Z,102821.25
2018-09-26T01:40:30.282Z,102818.65
2018-09-26T01:40:42.028Z,102818.65
2018-09-26T01:40:53.773Z,102819.58
2018-09-26T01:41:05.531Z,102816.23
2018-09-26T01:41:17.347Z,102815.30
2018-09-26T01:41:29.124Z,102817.91
2018-09-26T01:41:40.844Z,102813.63
2018-09-26T01:41:52.604Z,102818.14
2018-09-26T01:42:04.360Z,102814.94
2018-09-26T01:42:16.098Z,102815.30
2018-09-26T01:42:28.186Z,102811.39
2018-09-26T01:42:39.956Z,102810.70
2018-09-26T01:42:51.723Z,102808.79
2018-09-26T01:43:03.511Z,102816.84
2018-09-26T01:43:15.298Z,102815.53
2018-09-26T01:43:27.051Z,102817.54
2018-09-26T01:43:38.801Z,102813.63
2018-09-26T01:43:50.572Z,102811.39
2018-09-26T01:44:02.343Z,102808.42
2018-09-26T01:44:14.097Z,102804.18
2018-09-26T01:44:25.870Z,102811.62
2018-09-26T01:44:37.620Z,102809.72
2018-09-26T01:44:49.373Z,102816.23
2018-09-26T01:45:01.134Z,102813.07
2018-09-26T01:45:12.869Z,102808.79
2018-09-26T01:45:25.241Z,102806.19
2018-09-26T01:45:36.999Z,102809.72
2018-09-26T01:45:48.754Z,102808.79
2018-09-26T01:46:00.502Z,102806.78
2018-09-26T01:46:12.319Z,102809.16
2018-09-26T01:46:24.063Z,102804.88
2018-09-26T01:46:35.815Z,102801.91
2018-09-26T01:46:47.559Z,102807.12
2018-09-26T01:46:59.314Z,102811.02
2018-09-26T01:47:11.068Z,102803.20
2018-09-26T01:47:22.840Z,102800.97
2018-09-26T01:47:34.619Z,102804.52
2018-09-26T01:47:46.383Z,102800.97
2018-09-26T01:47:58.132Z,102805.81
2018-09-26T01:48:09.896Z,102803.20
2018-09-26T01:48:21.662Z,102802.87
2018-09-26T01:48:34.363Z,102801.91
2018-09-26T01:48:46.106Z,102809.39
2018-09-26T01:48:57.869Z,102809.72
2018-09-26T01:49:09.617Z,102808.09
2018-09-26T01:49:21.384Z,102804.18
2018-09-26T01:49:33.136Z,102801.91
2018-09-26T01:49:44.899Z,102807.34
2018-09-26T01:49:56.672Z,102803.20
2018-09-26T01:50:08.437Z,102804.18
2018-09-26T01:50:20.213Z,102804.18
2018-09-26T01:50:32.138Z,102804.52
2018-09-26T01:50:43.947Z,102804.18
2018-09-26T01:50:55.717Z,102798.00
2018-09-26T01:51:07.464Z,102802.27
2018-09-26T01:51:19.346Z,102801.91
2018-09-26T01:51:31.086Z,102798.37
2018-09-26T01:51:42.848Z,102797.06
2018-09-26T01:51:54.596Z,102796.13
2018-09-26T01:52:06.361Z,102797.06
2018-09-26T01:52:18.150Z,102792.59
2018-09-26T01:52:29.917Z,102795.76
2018-09-26T01:52:41.669Z,102798.73
2018-09-26T01:52:53.413Z,102802.27
2018-09-26T01:53:05.181Z,102797.06
2018-09-26T01:53:16.950Z,102795.76
2018-09-26T01:53:28.704Z,102792.22
2018-09-26T01:53:40.533Z,102797.06
2018-09-26T01:53:52.346Z,102797.06
2018-09-26T01:54:04.499Z,102791.48
2018-09-26T01:54:16.238Z,102790.91
2018-09-26T01:54:27.986Z,102795.39
2018-09-26T01:54:39.864Z,102797.06
2018-09-26T01:54:51.619Z,102793.16
2018-09-26T01:55:03.388Z,102789.61
2018-09-26T01:55:15.160Z,102791.85
2018-09-26T01:55:26.911Z,102794.69
2018-09-26T01:55:38.651Z,102792.45
2018-09-26T01:55:50.402Z,102788.87
2018-09-26T01:56:02.155Z,102784.03
2018-09-26T01:56:13.906Z,102788.31
2018-09-26T01:56:25.672Z,102784.97
2018-09-26T01:56:37.418Z,102795.05
2018-09-26T01:56:49.166Z,102790.91
2018-09-26T01:57:00.980Z,102786.27
2018-09-26T01:57:12.728Z,102786.27
2018-09-26T01:57:24.481Z,102786.64
2018-09-26T01:57:36.228Z,102786.64
2018-09-26T01:57:48.003Z,102781.80
2018-09-26T01:57:59.768Z,102782.53
2018-09-26T01:58:11.535Z,102780.13
2018-09-26T01:58:23.314Z,102784.62
2018-09-26T01:58:35.064Z,102783.66
2018-09-26T01:58:47.807Z,102782.36
2018-09-26T01:58:59.562Z,102775.28
2018-09-26T01:59:11.328Z,102781.42
2018-09-26T01:59:23.090Z,102778.12
2018-09-26T01:59:34.850Z,102777.15
2018-09-26T01:59:46.614Z,102785.20
2018-09-26T01:59:58.404Z,102782.03
2018-09-26T02:00:10.185Z,102784.62
2018-09-26T02:00:21.962Z,102773.61
2018-09-26T02:00:33.717Z,102779.42
2018-09-26T02:00:45.465Z,102772.30
2018-09-26T02:00:57.244Z,102780.13
2018-09-26T02:01:08.986Z,102773.98
2018-09-26T02:01:20.736Z,102782.03
2018-09-26T02:01:32.500Z,102773.98
2018-09-26T02:01:44.250Z,102777.15
2018-09-26T02:01:56.008Z,102777.15
2018-09-26T02:02:07.751Z,102768.77
2018-09-26T02:02:19.508Z,102768.77
2018-09-26T02:02:31.250Z,102772.67
2018-09-26T02:02:43.003Z,102768.77
2018-09-26T02:02:54.768Z,102771.60
2018-09-26T02:03:06.516Z,102768.02
2018-09-26T02:03:18.266Z,102771.60
2018-09-26T02:03:30.051Z,102766.16
2018-09-26T02:03:41.803Z,102771.38
2018-09-26T02:03:53.568Z,102772.67
2018-09-26T02:04:05.510Z,102766.53
2018-09-26T02:04:17.259Z,102773.98
2018-09-26T02:04:29.028Z,102769.50
2018-09-26T02:04:40.782Z,102767.09
2018-09-26T02:04:52.533Z,102768.77
2018-09-26T02:05:04.307Z,102765.59
2018-09-26T02:05:16.080Z,102768.77
2018-09-26T02:05:27.856Z,102760.38
2018-09-26T02:05:39.593Z,102763.55
2018-09-26T02:05:51.346Z,102759.64
2018-09-26T02:06:03.112Z,102760.02
2018-09-26T02:06:14.885Z,102759.64
2018-09-26T02:06:26.634Z,102761.31
2018-09-26T02:06:38.377Z,102758.71
2018-09-26T02:06:50.129Z,102761.31
2018-09-26T02:07:01.893Z,102766.16
2018-09-26T02:07:13.639Z,102757.78
2018-09-26T02:07:25.394Z,102756.48
2018-09-26T02:07:37.126Z,102752.56
2018-09-26T02:07:48.911Z,102754.80
2018-09-26T02:08:00.662Z,102753.87
2018-09-26T02:08:12.417Z,102758.34
2018-09-26T02:08:24.166Z,102759.27
2018-09-26T02:08:35.947Z,102758.71
2018-09-26T02:08:48.022Z,102755.73
2018-09-26T02:08:59.772Z,102756.11
2018-09-26T02:09:12.502Z,102752.20
2018-09-26T02:09:24.258Z,102753.87
2018-09-26T02:09:35.999Z,102757.04
2018-09-26T02:09:47.755Z,102760.95
2018-09-26T02:09:59.524Z,102755.54
2018-09-26T02:10:11.591Z,102755.17
2018-09-26T02:10:23.338Z,102760.75
2018-09-26T02:10:35.104Z,102755.54
2018-09-26T02:10:46.843Z,102754.80
2018-09-26T02:10:58.592Z,102761.88
2018-09-26T02:11:10.354Z,102759.08
2018-09-26T02:11:22.090Z,102756.84
2018-09-26T02:11:33.840Z,102759.08
2018-09-26T02:11:45.594Z,102759.45
2018-09-26T02:11:57.339Z,102758.71
2018-09-26T02:12:09.571Z,102762.98
2018-09-26T02:12:21.332Z,102760.95
2018-09-26T02:12:33.078Z,102763.19
2018-09-26T02:12:44.822Z,102753.50
2018-09-26T02:12:56.561Z,102764.48
2018-09-26T02:13:08.311Z,102760.95
2018-09-26T02:13:20.064Z,102766.53
2018-09-26T02:13:31.808Z,102760.58
2018-09-26T02:13:43.581Z,102761.31
2018-09-26T02:13:55.357Z,102762.62
2018-09-26T02:14:07.213Z,102762.25
2018-09-26T02:14:18.967Z,102763.55
2018-09-26T02:14:30.718Z,102761.88
2018-09-26T02:14:42.464Z,102763.19
2018-09-26T02:14:54.214Z,102771.38
2018-09-26T02:15:05.971Z,102769.33
2018-09-26T02:15:17.718Z,102768.77
2018-09-26T02:15:29.475Z,102767.46
2018-09-26T02:15:41.224Z,102762.05
2018-09-26T02:15:52.978Z,102765.59
2018-09-26T02:16:04.744Z,102767.83
2018-09-26T02:16:16.494Z,102769.13
2018-09-26T02:16:28.251Z,102772.30
2018-09-26T02:16:39.995Z,102764.30
2018-09-26T02:16:51.755Z,102769.13